Time,TemperatureF,DewpointF,PressureIn,WindDirection,WindDirectionDegrees,WindSpeedMPH,WindSpeedGustMPH,Humidity,HourlyPrecipIn,Conditions,Clouds,dailyrainin,SoftwareType,DateUTC
2013-05-13 00:00:00,41.6,28.0,29.99,South,169,2.0,3.0,58,0.00,,,0.00,weatherlink.com 1.10,2013-05-13 04:00:00,
2013-05-13 00:15:00,41.2,27.0,30.00,ENE,65,0.0,2.0,57,0.00,,,0.00,weatherlink.com 1.10,2013-05-13 04:15:00,
2013-05-13 00:30:00,40.7,27.0,30.00,NNE,15,0.0,2.0,59,0.00,,,0.00,weatherlink.com 1.10,2013-05-13 04:30:00,
2013-05-13 00:45:00,40.4,27.0,30.00,NE,35,1.0,3.0,59,0.00,,,0.00,weatherlink.com 1.10,2013-05-13 04:45:00,
2013-05-13 01:00:00,40.4,28.0,29.99,ENE,58,0.0,4.0,61,0.00,,,0.00,weatherlink.com 1.10,2013-05-13 05:00:00,
2013-05-13 01:15:00,40.0,27.0,29.99,North,358,2.0,3.0,61,0.00,,,0.00,weatherlink.com 1.10,2013-05-13 05:15:00,
2013-05-13 01:30:00,40.1,28.0,29.99,WSW,237,0.0,3.0,62,0.00,,,0.00,weatherlink.com 1.10,2013-05-13 05:30:00,
2013-05-13 01:45:00,39.7,28.0,29.99,NNW,340,2.0,2.0,64,0.00,,,0.00,weatherlink.com 1.10,2013-05-13 05:45:00,
2013-05-13 02:00:00,39.3,28.0,29.98,NNE,23,2.0,4.0,65,0.00,,,0.00,weatherlink.com 1.10,2013-05-13 06:00:00,
2013-05-13 02:15:00,39.0,28.0,29.98,NE,46,0.0,4.0,65,0.00,,,0.00,weatherlink.com 1.10,2013-05-13 06:15:00,
2013-05-13 02:30:00,39.1,29.0,29.99,NE,46,1.0,3.0,66,0.00,,,0.00,weatherlink.com 1.10,2013-05-13 06:30:00,
2013-05-13 02:45:00,38.7,28.0,29.99,NE,46,1.0,2.0,66,0.00,,,0.00,weatherlink.com 1.10,2013-05-13 06:45:00,
2013-05-13 03:00:00,38.6,28.0,29.98,NE,46,0.0,3.0,66,0.00,,,0.00,weatherlink.com 1.10,2013-05-13 07:00:00,
2013-05-13 03:15:00,38.7,29.0,29.98,ESE,102,0.0,4.0,68,0.00,,,0.00,weatherlink.com 1.10,2013-05-13 07:15:00,
2013-05-13 03:31:00,38.6,28.0,29.98,NE,54,0.0,3.0,66,0.00,,,0.00,weatherlink.com 1.10,2013-05-13 07:31:00,
2013-05-13 03:46:00,38.0,29.0,29.98,NE,54,0.0,3.0,69,0.00,,,0.00,weatherlink.com 1.10,2013-05-13 07:46:00,
2013-05-13 04:01:00,37.7,28.0,29.98,East,86,0.0,2.0,69,0.00,,,0.00,weatherlink.com 1.10,2013-05-13 08:01:00,
2013-05-13 04:16:00,37.9,29.0,29.98,SSW,194,1.0,6.0,69,0.00,,,0.00,weatherlink.com 1.10,2013-05-13 08:16:00,
2013-05-13 04:31:00,37.8,28.0,29.98,SW,217,0.0,4.0,69,0.00,,,0.00,weatherlink.com 1.10,2013-05-13 08:31:00,
2013-05-13 04:46:00,37.3,28.0,29.98,SW,217,1.0,2.0,69,0.00,,,0.00,weatherlink.com 1.10,2013-05-13 08:46:00,
2013-05-13 05:01:00,37.3,28.0,29.98,South,173,0.0,2.0,69,0.00,,,0.00,weatherlink.com 1.10,2013-05-13 09:01:00,
2013-05-13 05:16:00,37.3,28.0,29.99,South,173,0.0,1.0,68,0.00,,,0.00,weatherlink.com 1.10,2013-05-13 09:16:00,
2013-05-13 05:31:00,37.3,28.0,29.99,South,172,0.0,0.0,70,0.00,,,0.00,weatherlink.com 1.10,2013-05-13 09:31:00,
2013-05-13 05:46:00,37.1,28.0,29.99,SSE,159,0.0,3.0,69,0.00,,,0.00,weatherlink.com 1.10,2013-05-13 09:46:00,
2013-05-13 06:01:00,37.6,27.0,29.99,SW,234,0.0,6.0,66,0.00,,,0.00,weatherlink.com 1.10,2013-05-13 10:01:00,
2013-05-13 06:16:00,37.5,28.0,30.00,SW,233,0.0,1.0,69,0.00,,,0.00,weatherlink.com 1.10,2013-05-13 10:16:00,
2013-05-13 06:31:00,37.1,27.0,30.00,ENE,63,0.0,3.0,68,0.00,,,0.00,weatherlink.com 1.10,2013-05-13 10:31:00,
2013-05-13 06:46:00,36.5,28.0,30.01,ENE,63,0.0,2.0,70,0.00,,,0.00,weatherlink.com 1.10,2013-05-13 10:46:00,
2013-05-13 07:01:00,36.2,28.0,30.02,ENE,63,0.0,2.0,71,0.00,,,0.00,weatherlink.com 1.10,2013-05-13 11:01:00,
2013-05-13 07:16:00,36.0,27.0,30.02,ENE,63,0.0,3.0,71,0.00,,,0.00,weatherlink.com 1.10,2013-05-13 11:16:00,
2013-05-13 07:31:00,36.1,28.0,30.02,ENE,63,2.0,2.0,71,0.00,,,0.00,weatherlink.com 1.10,2013-05-13 11:31:00,
2013-05-13 07:46:00,36.1,27.0,30.03,ENE,63,0.0,3.0,70,0.00,,,0.00,weatherlink.com 1.10,2013-05-13 11:46:00,
2013-05-13 08:01:00,36.8,28.0,30.03,ENE,63,0.0,3.0,71,0.00,,,0.00,weatherlink.com 1.10,2013-05-13 12:01:00,
2013-05-13 08:16:00,37.3,27.0,30.04,ENE,63,1.0,3.0,66,0.00,,,0.00,weatherlink.com 1.10,2013-05-13 12:16:00,
2013-05-13 08:31:00,38.0,27.0,30.04,ENE,58,1.0,3.0,65,0.00,,,0.00,weatherlink.com 1.10,2013-05-13 12:31:00,
2013-05-13 08:46:00,38.7,27.0,30.05,East,100,2.0,5.0,64,0.00,,,0.00,weatherlink.com 1.10,2013-05-13 12:46:00,
2013-05-13 09:01:00,39.8,26.0,30.05,ENE,70,3.0,7.0,59,0.00,,,0.00,weatherlink.com 1.10,2013-05-13 13:01:00,
2013-05-13 09:16:00,41.2,25.0,30.05,WNW,292,0.0,5.0,53,0.00,,,0.00,weatherlink.com 1.10,2013-05-13 13:16:00,
2013-05-13 09:31:00,42.6,24.0,30.05,ESE,103,5.0,6.0,49,0.00,,,0.00,weatherlink.com 1.10,2013-05-13 13:31:00,
2013-05-13 09:46:00,43.5,23.0,30.06,ENE,60,1.0,7.0,45,0.00,,,0.00,weatherlink.com 1.10,2013-05-13 13:46:00,
2013-05-13 10:01:00,44.5,24.0,30.06,SSW,205,3.0,6.0,45,0.00,,,0.00,weatherlink.com 1.10,2013-05-13 14:01:00,
2013-05-13 10:17:00,45.5,24.0,30.06,South,184,3.0,6.0,43,0.00,,,0.00,weatherlink.com 1.10,2013-05-13 14:17:00,
2013-05-13 10:32:00,45.5,24.0,30.06,South,183,4.0,6.0,43,0.00,,,0.00,weatherlink.com 1.10,2013-05-13 14:32:00,
2013-05-13 10:47:00,46.3,22.0,30.06,South,191,2.0,7.0,38,0.00,,,0.00,weatherlink.com 1.10,2013-05-13 14:47:00,
2013-05-13 11:02:00,47.5,21.0,30.06,SSE,167,0.0,4.0,35,0.00,,,0.00,weatherlink.com 1.10,2013-05-13 15:02:00,
2013-05-13 11:17:00,48.8,20.0,30.07,SSW,205,3.0,5.0,32,0.00,,,0.00,weatherlink.com 1.10,2013-05-13 15:17:00,
2013-05-13 11:32:00,49.4,20.0,30.06,SSW,195,3.0,4.0,32,0.00,,,0.00,weatherlink.com 1.10,2013-05-13 15:32:00,
2013-05-13 11:47:00,49.4,20.0,30.06,SSW,198,2.0,6.0,31,0.00,,,0.00,weatherlink.com 1.10,2013-05-13 15:47:00,
2013-05-13 12:02:00,50.2,20.0,30.06,SW,219,4.0,6.0,31,0.00,,,0.00,weatherlink.com 1.10,2013-05-13 16:02:00,
2013-05-13 12:17:00,50.1,23.0,30.05,WSW,248,2.0,7.0,34,0.00,,,0.00,weatherlink.com 1.10,2013-05-13 16:17:00,
2013-05-13 12:32:00,50.2,20.0,30.05,ENE,70,0.0,7.0,31,0.00,,,0.00,weatherlink.com 1.10,2013-05-13 16:32:00,
2013-05-13 12:47:00,50.6,27.0,30.05,WSW,238,4.0,7.0,40,0.00,,,0.00,weatherlink.com 1.10,2013-05-13 16:47:00,
2013-05-13 13:02:00,49.9,26.0,30.05,WNW,302,6.0,9.0,40,0.00,,,0.00,weatherlink.com 1.10,2013-05-13 17:02:00,
2013-05-13 13:17:00,51.4,26.0,30.05,WSW,249,2.0,7.0,37,0.00,,,0.00,weatherlink.com 1.10,2013-05-13 17:17:00,
2013-05-13 13:32:00,51.8,24.0,30.04,SSW,192,5.0,12.0,34,0.00,,,0.00,weatherlink.com 1.10,2013-05-13 17:32:00,
2013-05-13 13:47:00,53.1,22.0,30.04,SW,231,2.0,6.0,30,0.00,,,0.00,weatherlink.com 1.10,2013-05-13 17:47:00,
2013-05-13 14:02:00,54.8,20.0,30.03,South,173,1.0,7.0,26,0.00,,,0.00,weatherlink.com 1.10,2013-05-13 18:02:00,
2013-05-13 14:17:00,55.3,20.0,30.03,WSW,243,2.0,4.0,25,0.00,,,0.00,weatherlink.com 1.10,2013-05-13 18:17:00,
2013-05-13 14:32:00,55.9,17.0,30.02,SSW,202,3.0,8.0,22,0.00,,,0.00,weatherlink.com 1.10,2013-05-13 18:32:00,
2013-05-13 14:47:00,55.5,15.0,30.03,SSW,203,2.0,11.0,20,0.00,,,0.00,weatherlink.com 1.10,2013-05-13 18:47:00,
2013-05-13 15:02:00,55.8,17.0,30.02,NNE,23,1.0,7.0,22,0.00,,,0.00,weatherlink.com 1.10,2013-05-13 19:02:00,
2013-05-13 15:17:00,55.5,18.0,30.02,South,179,2.0,9.0,23,0.00,,,0.00,weatherlink.com 1.10,2013-05-13 19:17:00,
2013-05-13 15:32:00,54.7,19.0,30.02,West,263,3.0,7.0,25,0.00,,,0.00,weatherlink.com 1.10,2013-05-13 19:32:00,
2013-05-13 15:47:00,54.7,21.0,30.01,West,267,2.0,10.0,27,0.00,,,0.00,weatherlink.com 1.10,2013-05-13 19:47:00,
2013-05-13 16:02:00,54.8,20.0,30.02,South,189,6.0,10.0,26,0.00,,,0.00,weatherlink.com 1.10,2013-05-13 20:02:00,
2013-05-13 16:17:00,53.7,20.0,30.01,SW,217,0.0,8.0,27,0.00,,,0.00,weatherlink.com 1.10,2013-05-13 20:17:00,
2013-05-13 16:33:00,53.9,22.0,30.01,SW,215,3.0,6.0,29,0.00,,,0.00,weatherlink.com 1.10,2013-05-13 20:33:00,
2013-05-13 16:48:00,53.6,22.0,30.02,South,169,2.0,8.0,29,0.00,,,0.00,weatherlink.com 1.10,2013-05-13 20:48:00,
2013-05-13 17:03:00,53.8,24.0,30.01,West,278,4.0,5.0,32,0.00,,,0.00,weatherlink.com 1.10,2013-05-13 21:03:00,
2013-05-13 17:18:00,53.0,24.0,30.01,SW,214,3.0,12.0,32,0.00,,,0.00,weatherlink.com 1.10,2013-05-13 21:18:00,
2013-05-13 17:33:00,52.6,25.0,30.02,ESE,105,2.0,7.0,35,0.00,,,0.00,weatherlink.com 1.10,2013-05-13 21:33:00,
2013-05-13 17:48:00,52.4,25.0,30.01,SSE,153,3.0,8.0,34,0.00,,,0.00,weatherlink.com 1.10,2013-05-13 21:48:00,
2013-05-13 18:03:00,51.4,24.0,30.01,SSW,194,0.0,8.0,35,0.00,,,0.00,weatherlink.com 1.10,2013-05-13 22:03:00,
2013-05-13 18:18:00,51.2,25.0,30.01,South,184,5.0,14.0,36,0.00,,,0.00,weatherlink.com 1.10,2013-05-13 22:18:00,
2013-05-13 18:33:00,50.6,26.0,30.01,ENE,58,1.0,8.0,39,0.00,,,0.00,weatherlink.com 1.10,2013-05-13 22:33:00,
2013-05-13 18:48:00,50.4,26.0,30.02,SSE,160,3.0,8.0,39,0.00,,,0.00,weatherlink.com 1.10,2013-05-13 22:48:00,
2013-05-13 19:03:00,49.9,27.0,30.01,SE,143,4.0,7.0,41,0.00,,,0.00,weatherlink.com 1.10,2013-05-13 23:03:00,
2013-05-13 19:18:00,49.5,28.0,30.01,North,356,4.0,6.0,43,0.00,,,0.00,weatherlink.com 1.10,2013-05-13 23:18:00,
2013-05-13 19:33:00,49.1,28.0,30.02,NNW,330,4.0,8.0,44,0.00,,,0.00,weatherlink.com 1.10,2013-05-13 23:33:00,
2013-05-13 19:48:00,48.7,28.0,30.02,SSE,167,5.0,7.0,45,0.00,,,0.00,weatherlink.com 1.10,2013-05-13 23:48:00,
2013-05-13 20:03:00,48.5,27.0,30.02,NE,38,1.0,7.0,44,0.00,,,0.00,weatherlink.com 1.10,2013-05-14 00:03:00,
2013-05-13 20:18:00,48.2,27.0,30.02,NW,306,0.0,8.0,44,0.00,,,0.00,weatherlink.com 1.10,2013-05-14 00:18:00,
2013-05-13 20:33:00,47.9,27.0,30.03,SSE,168,1.0,4.0,45,0.00,,,0.00,weatherlink.com 1.10,2013-05-14 00:33:00,
2013-05-13 20:48:00,47.7,27.0,30.03,South,171,0.0,6.0,45,0.00,,,0.00,weatherlink.com 1.10,2013-05-14 00:48:00,
2013-05-13 21:03:00,47.1,28.0,30.05,ENE,68,0.0,4.0,48,0.00,,,0.00,weatherlink.com 1.10,2013-05-14 01:03:00,
2013-05-13 21:18:00,46.3,28.0,30.05,ENE,63,2.0,4.0,50,0.00,,,0.00,weatherlink.com 1.10,2013-05-14 01:18:00,
2013-05-13 21:33:00,45.8,29.0,30.06,NNE,31,0.0,4.0,52,0.00,,,0.00,weatherlink.com 1.10,2013-05-14 01:33:00,
2013-05-13 21:48:00,45.6,29.0,30.06,ENE,64,2.0,3.0,53,0.00,,,0.00,weatherlink.com 1.10,2013-05-14 01:48:00,
2013-05-13 22:03:00,45.1,29.0,30.06,ENE,64,2.0,3.0,54,0.00,,,0.00,weatherlink.com 1.10,2013-05-14 02:03:00,
2013-05-13 22:18:00,44.8,29.0,30.07,ENE,64,0.0,3.0,55,0.00,,,0.00,weatherlink.com 1.10,2013-05-14 02:18:00,
2013-05-13 22:32:00,44.3,29.0,30.07,NE,34,1.0,4.0,55,0.00,,,0.00,weatherlink.com 1.10,2013-05-14 02:32:00,
2013-05-13 22:47:00,44.4,29.0,30.08,NE,38,2.0,4.0,56,0.00,,,0.00,weatherlink.com 1.10,2013-05-14 02:47:00,
2013-05-13 23:02:00,44.0,29.0,30.08,NE,37,0.0,4.0,57,0.00,,,0.00,weatherlink.com 1.10,2013-05-14 03:02:00,
2013-05-13 23:17:00,43.9,29.0,30.09,NNE,26,3.0,4.0,57,0.00,,,0.00,weatherlink.com 1.10,2013-05-14 03:17:00,
2013-05-13 23:32:00,44.2,30.0,30.09,ENE,71,3.0,3.0,57,0.00,,,0.00,weatherlink.com 1.10,2013-05-14 03:32:00,
2013-05-13 23:47:00,43.8,29.0,30.09,NNE,30,1.0,3.0,57,0.00,,,0.00,weatherlink.com 1.10,2013-05-14 03:47:00,